createdAt,value
2018-08-13T00:02:39.459Z,4.43
2018-08-13T00:07:42.657Z,5.13
2018-08-13T00:12:45.685Z,4.53
2018-08-13T00:17:48.828Z,4.23
2018-08-13T00:22:51.835Z,4.40
2018-08-13T00:27:54.945Z,4.37
2018-08-13T00:32:58.057Z,4.27
2018-08-13T00:38:01.055Z,4.00
2018-08-13T00:43:04.379Z,3.70
2018-08-13T00:48:07.419Z,4.07
2018-08-13T00:53:10.459Z,4.53
2018-08-13T00:58:13.705Z,4.20
2018-08-13T01:03:16.744Z,4.10
2018-08-13T01:08:19.755Z,4.03
2018-08-13T01:13:24.116Z,3.97
2018-08-13T01:18:27.376Z,3.57
2018-08-13T01:23:30.583Z,3.70
2018-08-13T01:28:33.599Z,3.10
2018-08-13T01:33:36.634Z,3.50
2018-08-13T01:38:39.643Z,3.57
2018-08-13T01:43:42.664Z,3.67
2018-08-13T01:48:45.727Z,3.43
2018-08-13T01:53:48.847Z,2.70
2018-08-13T01:58:51.860Z,3.40
2018-08-13T02:03:54.887Z,3.47
2018-08-13T02:08:57.987Z,2.93
2018-08-13T02:14:01.088Z,3.40
2018-08-13T02:19:04.098Z,3.50
2018-08-13T02:24:07.174Z,2.90
2018-08-13T02:29:10.183Z,3.23
2018-08-13T02:34:13.207Z,2.80
2018-08-13T02:39:16.280Z,3.00
2018-08-13T02:44:19.300Z,2.87
2018-08-13T02:49:22.320Z,2.70
2018-08-13T02:54:25.392Z,3.73
2018-08-13T02:59:28.415Z,2.50
2018-08-13T03:04:31.440Z,3.13
2018-08-13T03:09:34.449Z,2.70
2018-08-13T03:14:37.476Z,2.83
2018-08-13T03:19:40.533Z,3.10
2018-08-13T03:24:43.623Z,2.60
2018-08-13T03:29:46.645Z,2.87
2018-08-13T03:34:49.684Z,3.00
2018-08-13T03:39:52.701Z,2.90
2018-08-13T03:44:55.761Z,3.07
2018-08-13T03:49:58.770Z,3.23
2018-08-13T03:55:01.798Z,2.73
2018-08-13T04:00:08.656Z,2.67
2018-08-13T04:05:12.716Z,3.50
2018-08-13T04:10:15.769Z,3.00
2018-08-13T04:15:18.801Z,2.80
2018-08-13T04:20:21.811Z,3.50
2018-08-13T04:25:24.836Z,3.17
2018-08-13T04:30:27.870Z,3.23
2018-08-13T04:35:30.904Z,3.20
2018-08-13T04:40:33.920Z,3.60
2018-08-13T04:45:36.962Z,4.13
2018-08-13T04:50:40.005Z,3.77
2018-08-13T04:55:43.036Z,3.30
2018-08-13T05:00:46.050Z,3.50
2018-08-13T05:05:49.168Z,3.40
2018-08-13T05:10:52.174Z,3.73
2018-08-13T05:15:55.278Z,4.20
2018-08-13T05:20:58.292Z,3.83
2018-08-13T05:26:01.391Z,3.40
2018-08-13T05:31:04.450Z,3.83
2018-08-13T05:36:07.495Z,3.30
2018-08-13T05:41:10.616Z,2.80
2018-08-13T05:46:13.657Z,3.40
2018-08-13T05:51:16.727Z,3.20
2018-08-13T05:56:19.832Z,3.07
2018-08-13T06:01:22.866Z,2.63
2018-08-13T06:06:25.887Z,2.93
2018-08-13T06:11:28.912Z,2.50
2018-08-13T06:16:32.040Z,3.00
2018-08-13T06:21:35.158Z,2.27
2018-08-13T06:26:38.251Z,2.67
2018-08-13T06:31:41.310Z,2.63
2018-08-13T06:36:44.364Z,2.20
2018-08-13T06:41:47.363Z,2.43
2018-08-13T06:46:50.379Z,2.17
2018-08-13T06:51:53.428Z,2.30
2018-08-13T06:56:56.475Z,2.60
2018-08-13T07:01:59.492Z,2.23
2018-08-13T07:07:02.792Z,2.17
2018-08-13T07:12:05.855Z,2.00
2018-08-13T07:17:08.885Z,2.73
2018-08-13T07:22:11.930Z,2.30
2018-08-13T07:27:15.006Z,3.07
2018-08-13T07:32:18.028Z,2.10
2018-08-13T07:37:21.080Z,2.43
2018-08-13T07:42:24.161Z,2.60
2018-08-13T07:47:27.344Z,2.30
2018-08-13T07:52:30.418Z,2.30
2018-08-13T07:57:33.661Z,2.93
2018-08-13T08:02:36.756Z,5.10
2018-08-13T08:07:39.940Z,3.30
2018-08-13T08:12:43.158Z,2.10
2018-08-13T08:17:46.187Z,1.67
2018-08-13T08:22:49.290Z,2.03
2018-08-13T08:27:52.315Z,2.20
2018-08-13T08:32:55.363Z,2.50
2018-08-13T08:37:58.409Z,1.77
2018-08-13T08:43:01.693Z,1.97
2018-08-13T08:48:06.299Z,1.50
2018-08-13T08:53:09.354Z,2.10
2018-08-13T08:58:13.239Z,6.87
2018-08-13T09:03:16.300Z,4.00
2018-08-13T09:08:19.319Z,2.00
2018-08-13T09:13:22.363Z,2.43
2018-08-13T09:18:36.863Z,2.07
2018-08-13T09:23:51.348Z,2.83
2018-08-13T09:29:05.952Z,2.00
2018-08-13T09:34:20.646Z,1.70
2018-08-13T09:39:23.900Z,1.60
2018-08-13T09:44:26.914Z,2.17
2018-08-13T09:49:29.927Z,2.50
2018-08-13T09:54:33.024Z,1.40
2018-08-13T09:59:36.071Z,1.80
2018-08-13T10:04:39.111Z,1.30
2018-08-13T10:09:42.115Z,2.03
2018-08-13T10:14:45.118Z,1.50
2018-08-13T10:19:48.414Z,1.30
2018-08-13T10:24:51.511Z,0.93
2018-08-13T10:29:54.552Z,1.30
2018-08-13T10:34:57.683Z,1.80
2018-08-13T10:40:00.703Z,1.30
2018-08-13T10:45:04.262Z,1.60
2018-08-13T10:50:08.982Z,1.00
2018-08-13T10:55:13.210Z,1.10
2018-08-13T11:00:16.712Z,1.40
2018-08-13T11:05:19.760Z,1.70
2018-08-13T11:10:22.862Z,1.57
2018-08-13T11:15:25.921Z,1.43
2018-08-13T11:20:28.931Z,1.87
2018-08-13T11:25:32.064Z,1.50
2018-08-13T11:30:35.062Z,1.30
2018-08-13T11:35:38.139Z,1.60
2018-08-13T11:40:41.207Z,1.40
2018-08-13T11:45:44.303Z,1.70
2018-08-13T11:50:47.434Z,1.60
2018-08-13T11:55:50.567Z,2.10
2018-08-13T12:00:53.634Z,1.80
2018-08-13T12:05:56.747Z,1.20
2018-08-13T12:10:59.943Z,1.20
2018-08-13T12:16:03.234Z,1.70
2018-08-13T12:21:06.312Z,1.53
2018-08-13T12:26:09.444Z,1.50
2018-08-13T12:31:12.631Z,1.10
2018-08-13T12:36:15.793Z,1.70
2018-08-13T12:41:18.840Z,1.13
2018-08-13T12:46:21.907Z,1.20
2018-08-13T12:51:24.939Z,2.00
2018-08-13T12:56:27.968Z,1.97
2018-08-13T13:01:31.517Z,1.37
2018-08-13T13:06:34.719Z,1.50
2018-08-13T13:11:37.993Z,1.60
2018-08-13T13:16:41.024Z,1.47
2018-08-13T13:21:44.175Z,1.47
2018-08-13T13:26:47.208Z,1.40
2018-08-13T13:31:50.315Z,1.20
2018-08-13T13:36:53.374Z,2.43
2018-08-13T13:41:56.382Z,2.00
2018-08-13T13:46:59.419Z,1.60
2018-08-13T13:52:02.581Z,1.53
2018-08-13T13:57:05.593Z,1.30
2018-08-13T14:02:09.873Z,0.90
2018-08-13T14:07:12.924Z,1.20
2018-08-13T14:12:15.955Z,1.70
2018-08-13T14:17:19.000Z,1.10
2018-08-13T14:22:22.067Z,1.57
2018-08-13T14:27:25.125Z,1.43
2018-08-13T14:32:28.175Z,1.57
2018-08-13T14:37:31.275Z,1.63
2018-08-13T14:42:34.305Z,1.20
2018-08-13T14:47:37.471Z,1.70
2018-08-13T14:52:41.927Z,1.63
2018-08-13T14:57:45.067Z,1.80
2018-08-13T15:02:48.527Z,1.37
2018-08-13T15:07:51.578Z,1.77
2018-08-13T15:12:55.020Z,1.90
2018-08-13T15:17:58.151Z,1.57
2018-08-13T15:23:01.188Z,2.03
2018-08-13T15:28:04.308Z,1.30
2018-08-13T15:33:07.245Z,1.57
2018-08-13T15:38:10.276Z,1.50
2018-08-13T15:43:13.314Z,3.17
2018-08-13T15:48:16.359Z,1.70
2018-08-13T15:53:19.421Z,1.60
2018-08-13T15:58:22.443Z,1.27
2018-08-13T16:03:25.476Z,1.43
2018-08-13T16:08:28.554Z,1.73
2018-08-13T16:13:31.774Z,1.57
2018-08-13T16:18:35.066Z,1.37
2018-08-13T16:23:38.285Z,1.60
2018-08-13T16:28:41.543Z,1.60
2018-08-13T16:33:44.617Z,1.50
2018-08-13T16:38:47.704Z,1.17
2018-08-13T16:43:50.724Z,1.40
2018-08-13T16:48:53.760Z,1.40
2018-08-13T16:53:56.816Z,1.13
2018-08-13T16:58:59.864Z,1.43
2018-08-13T17:04:02.916Z,1.40
2018-08-13T17:09:08.214Z,1.60
2018-08-13T17:14:13.809Z,1.50
2018-08-13T17:19:16.752Z,2.10
2018-08-13T17:24:19.802Z,2.20
2018-08-13T17:29:22.831Z,1.60
2018-08-13T17:34:25.872Z,1.52
2018-08-13T17:39:28.916Z,1.50
2018-08-13T17:44:32.400Z,1.77
2018-08-13T17:49:35.536Z,1.30
2018-08-13T17:54:38.595Z,2.10
2018-08-13T17:59:41.639Z,1.60
2018-08-13T18:04:45.440Z,2.10
2018-08-13T18:09:48.548Z,1.73
2018-08-13T18:14:51.625Z,1.70
2018-08-13T18:19:54.894Z,1.40
2018-08-13T18:24:58.023Z,1.63
2018-08-13T18:30:01.118Z,1.87
2018-08-13T18:35:04.520Z,1.67
2018-08-13T18:40:19.125Z,1.80
2018-08-13T18:45:22.225Z,1.90
2018-08-13T18:50:25.257Z,1.90
2018-08-13T18:55:28.391Z,2.00
2018-08-13T19:00:31.632Z,1.90
2018-08-13T19:05:35.068Z,1.90
2018-08-13T19:10:38.152Z,1.50
2018-08-13T19:15:41.264Z,2.00
2018-08-13T19:20:44.325Z,1.40
2018-08-13T19:25:47.477Z,1.90
2018-08-13T19:30:50.521Z,1.83
2018-08-13T19:35:53.699Z,2.20
2018-08-13T19:40:56.740Z,2.10
2018-08-13T19:45:59.906Z,2.20
2018-08-13T19:51:02.973Z,2.00
2018-08-13T19:56:06.295Z,2.03
2018-08-13T20:01:09.340Z,2.40
2018-08-13T20:06:12.411Z,1.97
2018-08-13T20:11:15.463Z,1.90
2018-08-13T20:16:18.531Z,2.10
2018-08-13T20:21:21.544Z,2.00
2018-08-13T20:26:24.625Z,2.37
2018-08-13T20:31:27.673Z,2.50
2018-08-13T20:36:30.989Z,2.63
2018-08-13T20:41:34.040Z,2.40
2018-08-13T20:46:37.270Z,2.43
2018-08-13T20:51:40.411Z,2.60
2018-08-13T20:56:43.468Z,2.60
2018-08-13T21:01:46.572Z,2.80
2018-08-13T21:06:49.612Z,2.83
2018-08-13T21:11:52.643Z,2.70
2018-08-13T21:16:55.807Z,2.60
2018-08-13T21:21:58.834Z,3.27
2018-08-13T21:27:01.934Z,2.53
2018-08-13T21:32:04.956Z,2.80
2018-08-13T21:37:08.010Z,2.73
2018-08-13T21:42:11.061Z,3.10
2018-08-13T21:47:14.179Z,2.70
2018-08-13T21:52:17.223Z,3.00
2018-08-13T21:57:23.429Z,3.03
2018-08-13T22:02:26.484Z,2.43
2018-08-13T22:07:29.536Z,3.20
2018-08-13T22:12:32.590Z,2.77
2018-08-13T22:17:35.720Z,2.70
2018-08-13T22:22:38.788Z,2.80
2018-08-13T22:27:41.831Z,3.90
2018-08-13T22:32:44.843Z,3.00
2018-08-13T22:37:47.888Z,2.37
2018-08-13T22:42:50.971Z,2.50
2018-08-13T22:47:54.016Z,3.00
2018-08-13T22:52:57.095Z,3.30
2018-08-13T22:58:00.154Z,3.57
2018-08-13T23:03:03.217Z,3.57
2018-08-13T23:08:06.735Z,3.20
2018-08-13T23:13:14.804Z,2.63
2018-08-13T23:18:17.831Z,2.47
2018-08-13T23:23:20.883Z,3.10
2018-08-13T23:28:23.925Z,3.20
2018-08-13T23:33:26.957Z,2.70
2018-08-13T23:38:30.005Z,2.43
2018-08-13T23:43:33.079Z,3.30
2018-08-13T23:48:36.112Z,3.07
2018-08-13T23:53:39.148Z,2.83
2018-08-13T23:58:42.165Z,2.83
